• Join FlightAware (Why Join?)
  • Login
  • US Flag 
11:57AM EST


 

Airport Tracker/Info


-or-


 

Live Flight TrackerFlight Track Log ✈ N935SS ✈ 15-Apr-2013 ✈ KJAN - KHPN

Flight Track Log - Related Links

Times and Time Zones

All times are in EDT time to prevent confusion due to time zone crossing. See the N935SS flight status page for this flight to view local times or setup timezone preferences in your user account.

Time Position Orientation Groundspeed Altitude Reporting Facility
EDT Latitude Longitude Course Direction KTS MPH feet Rate Location/Type
05:26PM 32.3328 -89.9122 87° East 299 344 5,100  Level Memphis Center
05:27PM 32.3786 -89.8333 55° Northeast 315 362 5,400 1,440 Climbing Memphis Center
05:28PM 32.3906 -89.7372 82° East 287 330 8,000 2,460 Climbing Memphis Center
05:30PM 32.3589 -89.1573 87° East  Level FlightAware Approximate
05:30PM 32.3853 -89.5308 92° East 306 352 12,800  Level Memphis Center
05:31PM 32.3664 -89.0050 87° East  Level FlightAware Approximate
05:31PM 32.3822 -89.4078 92° East 338 389 14,600  Level Memphis Center
05:32PM 32.3814 -89.2847 90° East 359 413 16,600 1,920 Climbing Memphis Center
05:33PM 32.3822 -89.1667 89° East 381 438 18,500 1,800 Climbing Memphis Center
05:34PM 32.3808 -89.0364 91° East 392 451 20,200 1,680 Climbing Memphis Center
05:35PM 32.3794 -88.8986 91° East 402 463 21,900 1,680 Climbing Memphis Center
05:36PM 32.4069 -88.7653 76° East 411 473 23,600 1,500 Climbing Memphis Center
05:37PM 32.4847 -88.6531 51° Northeast 401 461 25,000 660 Climbing Memphis Center
05:38PM 32.5647 -88.5381 50° Northeast 423 487 25,000 900 Level Memphis Center
05:40PM 32.7272 -88.2981 51° Northeast 467 537 27,800 1,500 Climbing Atlanta Center
05:41PM 32.8061 -88.1833 51° Northeast 462 532 29,500 1,320 Climbing Atlanta Center
05:42PM 32.8853 -88.0633 52° Northeast 457 526 30,500 960 Climbing Atlanta Center
05:43PM 32.9747 -87.9411 49° Northeast 463 533 31,500 960 Climbing Atlanta Center
05:44PM 33.0536 -87.8208 52° Northeast 469 540 32,500 960 Climbing Atlanta Center
05:45PM 33.1389 -87.6956 51° Northeast 474 545 33,500 960 Climbing Atlanta Center
05:46PM 33.2242 -87.5650 52° Northeast 486 559 34,500 720 Climbing Atlanta Center
05:47PM 33.3111 -87.4342 51° Northeast 491 565 35,000 480 Climbing Atlanta Center
05:48PM 33.4025 -87.2986 51° Northeast 498 573 35,500 720 Climbing Atlanta Center
05:49PM 33.4917 -87.1675 51° Northeast 503 579 36,500 1,200 Climbing Atlanta Center
05:50PM 33.5869 -87.0211 52° Northeast 503 579 37,900 1,260 Climbing Atlanta Center
05:51PM 33.6736 -86.8944 51° Northeast 501 577 39,100 1,200 Climbing Atlanta Center
05:52PM 33.7639 -86.7775 47° Northeast 494 568 40,300 900 Climbing Atlanta Center
05:53PM 33.8519 -86.6578 48° Northeast 476 548 41,000 300 Climbing Atlanta Center
05:54PM 33.9464 -86.5378 46° Northeast 481 554 41,000  Level Atlanta Center
05:55PM 34.0428 -86.4128 47° Northeast 492 566 41,000  Level Atlanta Center
05:56PM 34.1411 -86.2875 46° Northeast 497 572 41,000  Level Atlanta Center
05:57PM 34.2372 -86.1619 47° Northeast 502 578 41,000  Level Atlanta Center
05:58PM 34.3353 -86.0336 47° Northeast 508 585 41,000  Level Atlanta Center
05:59PM 34.4314 -85.9075 47° Northeast 508 585 41,000  Level Atlanta Center
06:00PM 34.5164 -85.7958 47° Northeast 508 585 41,000  Level Atlanta Center
06:01PM 34.6100 -85.6692 48° Northeast 503 579 41,000  Level Atlanta Center
06:02PM 34.7056 -85.5422 48° Northeast 503 579 41,000  Level Atlanta Center
06:03PM 34.8008 -85.4122 48° Northeast 503 579 41,000  Level Atlanta Center
06:04PM 34.8983 -85.2822 48° Northeast 508 585 41,000  Level Atlanta Center
06:05PM 34.9933 -85.1569 47° Northeast 508 585 41,000  Level Atlanta Center
06:06PM 35.0883 -85.0314 47° Northeast 508 585 41,000  Level Atlanta Center
06:07PM 35.2017 -84.9333 35° Northeast 490 564 41,000  Level Atlanta Center
06:08PM 35.3150 -84.8406 34° Northeast 490 564 41,000  Level Atlanta Center
06:09PM 35.4283 -84.7525 32° Northeast 490 564 41,000  Level Atlanta Center
06:10PM 35.5414 -84.6614 33° Northeast 490 564 41,000  Level Atlanta Center
06:11PM 35.6586 -84.5678 33° Northeast 490 564 41,000  Level Atlanta Center
06:12PM 35.7739 -84.4764 33° Northeast 490 564 41,000  Level Atlanta Center
06:13PM 35.8867 -84.3822 34° Northeast 490 564 41,000  Level Atlanta Center
06:14PM 36.0142 -84.2825 32° Northeast 490 564 41,000  Level Atlanta Center
06:17PM 36.2894 -84.0572 33° Northeast 491 565 41,000  Level Indianapolis Center
06:18PM 36.4036 -83.9642 33° Northeast 491 565 41,000  Level Indianapolis Center
06:19PM 36.5369 -83.8558 33° Northeast 489 563 41,000  Level Indianapolis Center
06:20PM 36.6508 -83.7619 33° Northeast 489 563 41,000  Level Indianapolis Center
06:21PM 36.7642 -83.6672 34° Northeast 488 562 41,000  Level Indianapolis Center
06:22PM 36.8797 -83.5731 33° Northeast 491 565 41,000  Level Indianapolis Center
06:23PM 36.9939 -83.4772 34° Northeast 491 565 41,000  Level Indianapolis Center
06:24PM 37.1086 -83.3819 34° Northeast 490 564 41,000  Level Indianapolis Center
06:25PM 37.2417 -83.2694 34° Northeast 488 562 41,000  Level Indianapolis Center
06:26PM 37.3556 -83.1744 34° Northeast 486 559 41,000  Level Indianapolis Center
06:27PM 37.4686 -83.0769 34° Northeast 488 562 41,000  Level Indianapolis Center
06:28PM 37.5808 -82.9839 33° Northeast 480 552 41,000  Level Indianapolis Center
06:29PM 37.6928 -82.8839 35° Northeast 489 563 41,000  Level Indianapolis Center
06:30PM 37.8050 -82.7897 34° Northeast 485 558 41,000  Level Indianapolis Center
06:31PM 37.9189 -82.6919 34° Northeast 490 564 41,000  Level Indianapolis Center
06:32PM 38.0492 -82.5789 34° Northeast 487 560 41,000  Level Indianapolis Center
06:33PM 38.1658 -82.4778 34° Northeast 491 565 41,000  Level Indianapolis Center
06:34PM 38.2792 -82.3789 34° Northeast 491 565 41,000  Level Indianapolis Center
06:35PM 38.3925 -82.2808 34° Northeast 492 566 41,000  Level Indianapolis Center
06:36PM 38.5058 -82.1811 35° Northeast 491 565 41,100 540 Climbing Indianapolis Center
06:37PM 38.6161 -82.0844 34° Northeast 481 554 42,200 900 Climbing Indianapolis Center
06:38PM 38.7247 -81.9889 34° Northeast 472 543 43,000 360 Climbing Indianapolis Center
06:39PM 38.8356 -81.8911 34° Northeast 476 548 43,000  Level Indianapolis Center
06:40PM 38.9486 -81.7889 35° Northeast 488 562 43,000  Level Indianapolis Center
06:42PM 39.0633 -81.6869 35° Northeast 494 568 43,000  Level Indianapolis Center
06:43PM 39.2011 -81.5619 35° Northeast 501 577 43,000  Level Indianapolis Center
06:44PM 39.3144 -81.4597 35° Northeast 496 571 43,000  Level Indianapolis Center
06:45PM 39.4289 -81.3564 35° Northeast 498 573 43,000  Level Indianapolis Center
06:45PM 39.4875 -81.3039 35° Northeast 498 573 43,000  Level Cleveland Center
06:46PM 39.6028 -81.2000 35° Northeast 498 573 43,000  Level Cleveland Center
06:47PM 39.7158 -81.0958 35° Northeast 498 573 43,000  Level Cleveland Center
06:48PM 39.8289 -80.9939 35° Northeast 498 573 43,000  Level Cleveland Center
06:49PM 39.9439 -80.8892 35° Northeast 498 573 43,000  Level Cleveland Center
06:50PM 40.0586 -80.7892 34° Northeast 498 573 43,000  Level Cleveland Center
06:51PM 40.1775 -80.6972 31° Northeast 492 566 43,000  Level Cleveland Center
06:52PM 40.2944 -80.6103 30° Northeast 486 559 43,000  Level Cleveland Center
06:53PM 40.4153 -80.5203 30° Northeast 486 559 43,000  Level Cleveland Center
06:54PM 40.5339 -80.4275 31° Northeast 492 566 43,000  Level Cleveland Center
06:55PM 40.6486 -80.3367 31° Northeast 487 560 43,000  Level Cleveland Center
06:56PM 40.7692 -80.2458 30° Northeast 487 560 43,000  Level Cleveland Center
06:57PM 40.9044 -80.1408 30° Northeast 492 566 43,000  Level Cleveland Center
06:58PM 41.0228 -80.0492 30° Northeast 492 566 43,000  Level Cleveland Center
06:59PM 41.1183 -79.9742 31° Northeast 492 566 43,000  Level Cleveland Center
07:00PM 41.2469 -79.8761 30° Northeast 487 560 43,000  Level Cleveland Center
07:01PM 41.3653 -79.7836 30° Northeast 487 560 43,000  Level Cleveland Center
07:02PM 41.4833 -79.6906 31° Northeast 487 560 43,000  Level Cleveland Center
07:03PM 41.6036 -79.5975 30° Northeast 487 560 43,000  Level Cleveland Center
07:04PM 41.7214 -79.5036 31° Northeast 492 566 43,000  Level Cleveland Center
07:05PM 41.8394 -79.4069 31° Northeast 492 566 43,000  Level Cleveland Center
07:06PM 41.9572 -79.3100 31° Northeast 492 566 43,000  Level Cleveland Center
07:07PM 42.0728 -79.2153 31° Northeast 492 566 43,000  Level Cleveland Center
07:08PM 42.1689 -79.0789 46° Northeast 492 566 43,000  Level Cleveland Center
07:09PM 42.2186 -78.8953 70° East 492 566 43,000  Level Cleveland Center
07:10PM 42.2447 -78.7011 80° East 493 567 43,000  Level Cleveland Center
07:11PM 42.2686 -78.5039 81° East 510 587 43,000  Level Cleveland Center
07:12PM 42.2919 -78.3094 81° East 515 593 43,000  Level Cleveland Center
07:13PM 42.3150 -78.1178 81° East 520 598 43,000 -300 Level Cleveland Center
07:14PM 42.3358 -77.9231 82° East 520 598 42,400 -1,020 Descending Cleveland Center
07:15PM 42.3603 -77.7281 80° East 526 605 41,000 -1,500 Descending Cleveland Center
07:16PM 42.3825 -77.5331 81° East 526 605 39,400 -1,500 Descending Cleveland Center
07:17PM 42.4061 -77.3294 81° East 521 600 38,000 -1,500 Descending Cleveland Center
07:18PM 42.4275 -77.1369 81° East 516 594 36,400 -1,140 Descending Cleveland Center
07:21PM 42.5311 -76.6981 72° East 497 572 34,000 -720 Descending Boston Center
07:22PM 42.5403 -76.5069 86° East 497 572 34,000 -600 Level Boston Center
07:23PM 42.5456 -76.2931 88° East 505 581 32,800 -1,440 Descending Boston Center
07:24PM 42.5514 -76.1214 87° East 510 587 31,200 -1,740 Descending Boston Center
07:25PM 42.5511 -75.9325 90° East 510 587 29,400 -1,860 Descending Boston Center
07:26PM 42.5042 -75.7522 109° East 504 580 27,600 -1,860 Descending Boston Center
07:27PM 42.4339 -75.5853 120° Southeast 499 574 25,800 -1,740 Descending Boston Center
07:28PM 42.3733 -75.4333 118° Southeast 485 558 24,100 -1,800 Descending Boston Center
07:29PM 42.3106 -75.2814 119° Southeast 469 540 22,200 -1,860 Descending Boston Center
07:30PM 42.2494 -75.1356 119° Southeast 453 521 20,400 -1,860 Descending Boston Center
07:31PM 42.1922 -74.9958 119° Southeast 442 509 18,500 -1,200 Descending Boston Center
07:32PM 42.1350 -74.8592 119° Southeast 431 496 18,000 -300 Descending Boston Center
07:33PM 42.0772 -74.7197 119° Southeast 425 489 18,000 -360 Level Boston Center
07:34PM 42.0158 -74.5667 118° Southeast 431 496 17,300 -1,380 Descending Boston Center
07:35PM 41.9597 -74.4364 120° Southeast 415 478 15,300 -1,860 Descending Boston Center
07:36PM 41.9075 -74.3147 120° Southeast 393 452 13,700 -1,680 Descending Boston Center
07:37PM 41.8633 -74.2103 120° Southeast 368 423 12,000 -1,560 Descending Boston Center
07:38PM 41.8169 -74.1169 124° Southeast 347 399 10,600 -1,560 Descending Boston Center
07:39PM 41.7472 -74.0456 143° Southeast 260 299 8,900 -1,560 Descending Boston Center
07:40PM 41.6808 -74.0217 165° South 265 305 7,600 -1,440 Descending Boston Center
07:41PM 41.6019 -73.9947 166° South 270 311 6,100 -420 Descending Boston Center
07:43PM 41.3988 -73.8411 159° South  Level FlightAware Approximate
07:44PM 41.3500 -73.9000 246° West 266 306 5,900  Level New York TRACON
07:46PM 41.1939 -73.7937 143° Southeast  Level Estimated
07:47PM 41.1833 -73.8000 246° West 154 177 2,900  Level New York TRACON
07:48PM 41.1500 -73.7667 143° Southeast 117 135 2,200 -660 Descending New York TRACON
07:49PM 41.1167 -73.7500 159° South 113 130 1,600 -660 Descending New York TRACON
07:50PM 41.0667 -73.7000 246° West  Level FlightAware Approximate
07:50PM 41.1000 -73.7333 143° Southeast 117 135 900  Level New York TRACON
07:52PM 41.0667 -73.7000 246° West  Level FlightAware Approximate
07:53PM 41.0667 -73.7000 246° West  Level FlightAware Approximate
07:59PM 41.0669 -73.7076 246° West  Level Estimated
08:00PM 41.0667 -73.7000 246° West  Level FlightAware Approximate